createdAt,value
2023-01-25T00:00:49.646Z,10.73
2023-01-25T00:03:16.390Z,11.17
2023-01-25T00:05:43.195Z,10.97
2023-01-25T00:08:09.885Z,12.17
2023-01-25T00:10:36.576Z,11.27
2023-01-25T00:13:03.218Z,11.10
2023-01-25T00:15:30.675Z,11.10
2023-01-25T00:17:57.318Z,11.43
2023-01-25T00:20:24.018Z,10.83
2023-01-25T00:22:50.629Z,10.97
2023-01-25T00:25:17.334Z,10.90
2023-01-25T00:27:43.896Z,10.00
2023-01-25T00:30:10.954Z,10.73
2023-01-25T00:32:53.277Z,11.80
2023-01-25T00:35:20.933Z,10.77
2023-01-25T00:37:49.920Z,11.17
2023-01-25T00:40:16.947Z,10.73
2023-01-25T00:42:43.681Z,10.93
2023-01-25T00:45:12.331Z,10.73
2023-01-25T00:47:39.151Z,11.33
2023-01-25T00:50:09.452Z,11.83
2023-01-25T00:52:36.459Z,10.97
2023-01-25T00:55:03.420Z,11.10
2023-01-25T00:57:30.289Z,11.77
2023-01-25T00:59:57.068Z,11.13
2023-01-25T01:02:23.719Z,10.87
2023-01-25T01:04:50.439Z,11.27
2023-01-25T01:07:17.046Z,11.43
2023-01-25T01:09:43.700Z,12.10
2023-01-25T01:12:10.271Z,11.80
2023-01-25T01:14:37.223Z,11.50
2023-01-25T01:17:03.933Z,11.20
2023-01-25T01:19:30.892Z,11.77
2023-01-25T01:21:57.581Z,12.43
2023-01-25T01:24:24.387Z,11.63
2023-01-25T01:26:51.059Z,12.00
2023-01-25T01:29:17.775Z,11.77
2023-01-25T01:31:44.462Z,11.67
2023-01-25T01:34:14.559Z,12.80
2023-01-25T01:36:41.613Z,12.17
2023-01-25T01:39:09.122Z,11.93
2023-01-25T01:41:36.234Z,11.67
2023-01-25T01:44:03.819Z,13.40
2023-01-25T01:46:39.487Z,12.90
2023-01-25T01:49:29.439Z,13.20
2023-01-25T01:52:03.170Z,13.87
2023-01-25T01:54:52.657Z,13.67
2023-01-25T01:57:26.877Z,13.87
2023-01-25T02:00:19.797Z,13.33
2023-01-25T02:02:49.162Z,13.83
2023-01-25T02:05:43.144Z,13.40
2023-01-25T02:08:13.304Z,14.37
2023-01-25T02:10:40.861Z,14.17
2023-01-25T02:13:07.489Z,15.80
2023-01-25T02:15:41.847Z,16.13
2023-01-25T02:18:10.350Z,16.37
2023-01-25T02:20:43.262Z,16.27
2023-01-25T02:23:35.076Z,16.43
2023-01-25T02:26:05.721Z,16.33
2023-01-25T02:28:44.200Z,15.97
2023-01-25T02:31:10.915Z,16.97
2023-01-25T02:33:37.492Z,17.07
2023-01-25T02:36:07.150Z,17.87
2023-01-25T02:38:55.514Z,17.87
2023-01-25T02:41:30.072Z,18.17
2023-01-25T02:43:56.704Z,17.20
2023-01-25T02:46:31.744Z,19.27
2023-01-25T02:49:00.874Z,17.73
2023-01-25T02:51:29.387Z,16.83
2023-01-25T02:53:57.125Z,16.70
2023-01-25T02:56:24.821Z,17.57
2023-01-25T02:58:51.621Z,17.77
2023-01-25T03:01:28.184Z,18.57
2023-01-25T03:03:55.028Z,17.93
2023-01-25T03:06:21.591Z,17.60
2023-01-25T03:08:48.184Z,18.03
2023-01-25T03:11:14.811Z,18.20
2023-01-25T03:13:41.564Z,18.83
2023-01-25T03:16:10.533Z,19.10
2023-01-25T03:18:37.884Z,19.63
2023-01-25T03:21:13.316Z,18.97
2023-01-25T03:23:40.920Z,19.23
2023-01-25T03:26:10.322Z,19.20
2023-01-25T03:28:38.523Z,16.30
2023-01-25T03:31:08.332Z,17.77
2023-01-25T03:33:34.921Z,17.03
2023-01-25T03:36:02.037Z,18.17
2023-01-25T03:38:29.344Z,17.97
2023-01-25T03:40:55.989Z,18.43
2023-01-25T03:43:22.958Z,17.47
2023-01-25T03:45:53.879Z,17.47
2023-01-25T03:48:21.539Z,17.53
2023-01-25T03:50:53.037Z,18.10
2023-01-25T03:53:27.474Z,19.10
2023-01-25T03:55:59.070Z,17.33
2023-01-25T03:58:26.536Z,16.80
2023-01-25T04:00:55.968Z,19.07
2023-01-25T04:03:23.334Z,18.90
2023-01-25T04:05:50.625Z,19.13
2023-01-25T04:08:17.311Z,20.30
2023-01-25T04:10:44.330Z,18.40
2023-01-25T04:13:11.329Z,19.17
2023-01-25T04:15:37.948Z,18.60
2023-01-25T04:18:04.497Z,19.00
2023-01-25T04:20:31.101Z,19.27
2023-01-25T04:22:57.810Z,18.73
2023-01-25T04:25:24.846Z,19.80
2023-01-25T04:27:51.658Z,19.23
2023-01-25T04:30:18.419Z,19.77
2023-01-25T04:32:45.563Z,20.30
2023-01-25T04:35:12.523Z,19.20
2023-01-25T04:37:39.156Z,20.17
2023-01-25T04:40:06.531Z,18.87
2023-01-25T04:42:33.378Z,18.63
2023-01-25T04:45:00.056Z,19.00
2023-01-25T04:47:26.635Z,19.57
2023-01-25T04:49:53.206Z,19.63
2023-01-25T04:52:19.950Z,19.87
2023-01-25T04:54:48.568Z,21.27
2023-01-25T04:57:15.111Z,20.43
2023-01-25T04:59:41.681Z,20.53
2023-01-25T05:02:08.341Z,21.37
2023-01-25T05:04:34.987Z,21.57
2023-01-25T05:07:01.661Z,21.00
2023-01-25T05:09:28.754Z,21.77
2023-01-25T05:11:55.481Z,21.80
2023-01-25T05:14:22.044Z,20.63
2023-01-25T05:16:48.838Z,22.87
2023-01-25T05:19:15.617Z,23.40
2023-01-25T05:22:00.527Z,22.80
2023-01-25T05:24:31.850Z,23.27
2023-01-25T05:27:03.611Z,24.63
2023-01-25T05:29:42.528Z,23.30
2023-01-25T05:32:12.449Z,21.77
2023-01-25T05:34:39.471Z,26.13
2023-01-25T05:37:08.193Z,23.57
2023-01-25T05:39:34.797Z,23.07
2023-01-25T05:42:01.956Z,23.70
2023-01-25T05:44:29.247Z,21.60
2023-01-25T05:46:56.555Z,23.50
2023-01-25T05:49:23.129Z,21.53
2023-01-25T05:51:49.798Z,21.57
2023-01-25T05:54:17.953Z,23.37
2023-01-25T05:56:44.619Z,22.53
2023-01-25T05:59:14.143Z,20.37
2023-01-25T06:01:40.881Z,20.47
2023-01-25T06:04:17.233Z,20.53
2023-01-25T06:06:43.877Z,20.67
2023-01-25T06:09:12.077Z,21.07
2023-01-25T06:11:38.802Z,20.00
2023-01-25T06:14:05.455Z,20.70
2023-01-25T06:16:39.482Z,19.60
2023-01-25T06:19:10.548Z,20.70
2023-01-25T06:21:37.232Z,20.33
2023-01-25T06:24:05.187Z,20.17
2023-01-25T06:26:32.046Z,20.97
2023-01-25T06:28:58.671Z,20.40
2023-01-25T06:31:25.618Z,22.07
2023-01-25T06:33:52.837Z,21.67
2023-01-25T06:36:21.780Z,22.77
2023-01-25T06:38:54.704Z,22.07
2023-01-25T06:41:22.954Z,23.23
2023-01-25T06:46:34.221Z,24.83
2023-01-25T06:49:01.093Z,23.67
2023-01-25T06:51:27.851Z,25.57
2023-01-25T06:54:01.835Z,24.87
2023-01-25T06:56:43.345Z,25.10
2023-01-25T06:59:10.767Z,22.97
2023-01-25T07:01:38.159Z,25.93
2023-01-25T07:04:05.313Z,23.97
2023-01-25T07:06:35.029Z,22.60
2023-01-25T07:09:04.815Z,22.70
2023-01-25T07:11:37.773Z,23.33
2023-01-25T07:14:05.197Z,24.57
2023-01-25T07:16:36.691Z,24.83
2023-01-25T07:19:05.623Z,24.37
2023-01-25T07:21:33.052Z,24.27
2023-01-25T07:24:02.463Z,25.90
2023-01-25T07:26:29.661Z,25.80
2023-01-25T07:28:57.650Z,25.73
2023-01-25T07:31:24.874Z,24.90
2023-01-25T07:33:55.111Z,29.43
2023-01-25T07:36:22.502Z,32.43
2023-01-25T07:38:52.378Z,25.57
2023-01-25T07:41:19.102Z,30.10
2023-01-25T07:43:45.803Z,27.03
2023-01-25T07:46:13.913Z,27.37
2023-01-25T07:48:45.072Z,26.03
2023-01-25T07:51:11.845Z,24.60
2023-01-25T07:53:43.064Z,23.40
2023-01-25T07:56:11.966Z,24.30
2023-01-25T07:58:39.596Z,25.20
2023-01-25T08:01:14.988Z,23.37
2023-01-25T08:03:42.139Z,24.27
2023-01-25T08:06:10.188Z,23.27
2023-01-25T08:08:41.417Z,22.07
2023-01-25T08:11:14.116Z,27.27
2023-01-25T08:13:41.722Z,24.60
2023-01-25T08:16:08.819Z,28.43
2023-01-25T08:18:36.709Z,25.67
2023-01-25T08:21:03.617Z,24.80
2023-01-25T08:23:30.825Z,25.63
2023-01-25T08:26:04.535Z,25.03
2023-01-25T08:28:31.242Z,28.33
2023-01-25T08:31:16.567Z,23.30
2023-01-25T08:33:45.983Z,25.77
2023-01-25T08:36:14.270Z,27.73
2023-01-25T08:38:41.635Z,25.33
2023-01-25T08:41:10.600Z,26.83
2023-01-25T08:43:37.991Z,29.67
2023-01-25T08:46:05.739Z,28.10
2023-01-25T08:48:32.588Z,26.30
2023-01-25T08:51:00.314Z,24.47
2023-01-25T08:53:31.893Z,26.37
2023-01-25T08:56:13.588Z,24.67
2023-01-25T08:58:43.584Z,24.50
2023-01-25T09:01:12.693Z,24.03
2023-01-25T09:03:42.506Z,26.10
2023-01-25T09:06:10.872Z,27.77
2023-01-25T09:08:40.719Z,22.13
2023-01-25T09:11:12.980Z,26.50
2023-01-25T09:13:43.561Z,26.40
2023-01-25T09:16:13.755Z,28.03
2023-01-25T09:18:42.584Z,28.07
2023-01-25T09:21:11.623Z,28.57
2023-01-25T09:23:50.642Z,28.43
2023-01-25T09:26:18.746Z,28.30
2023-01-25T09:28:50.582Z,27.20
2023-01-25T09:31:22.051Z,25.93
2023-01-25T09:33:51.655Z,28.33
2023-01-25T09:36:19.041Z,28.33
2023-01-25T09:38:45.943Z,33.77
2023-01-25T09:41:42.354Z,32.47
2023-01-25T09:44:20.955Z,27.57
2023-01-25T09:46:50.131Z,33.93
2023-01-25T09:50:00.875Z,30.00
2023-01-25T09:52:27.470Z,29.73
2023-01-25T09:54:54.512Z,28.13
2023-01-25T09:57:35.087Z,30.00
2023-01-25T10:00:08.423Z,29.70
2023-01-25T10:02:57.668Z,30.27
2023-01-25T10:05:28.461Z,30.90
2023-01-25T10:07:55.153Z,29.87
2023-01-25T10:10:29.516Z,30.10
2023-01-25T10:12:56.292Z,29.47
2023-01-25T10:15:28.038Z,30.07
2023-01-25T10:18:05.769Z,33.90
2023-01-25T10:20:36.139Z,28.77
2023-01-25T10:23:14.870Z,29.17
2023-01-25T10:25:49.801Z,31.23
2023-01-25T10:28:48.744Z,24.27
2023-01-25T10:31:21.734Z,29.90
2023-01-25T10:33:49.430Z,27.63
2023-01-25T10:36:20.464Z,28.33
2023-01-25T10:38:57.461Z,31.13
2023-01-25T10:41:43.007Z,30.90
2023-01-25T10:44:29.127Z,30.97
2023-01-25T10:47:21.234Z,29.00
2023-01-25T10:49:49.292Z,30.10
2023-01-25T10:52:29.364Z,29.03
2023-01-25T10:55:23.626Z,28.70
2023-01-25T10:57:53.854Z,26.23
2023-01-25T11:00:40.665Z,27.40
2023-01-25T11:03:20.364Z,25.37
2023-01-25T11:05:55.203Z,27.07
2023-01-25T11:08:32.276Z,22.90
2023-01-25T11:11:00.005Z,26.83
2023-01-25T11:13:33.442Z,26.83
2023-01-25T11:16:01.426Z,31.07
2023-01-25T11:18:34.924Z,28.43
2023-01-25T11:21:18.654Z,32.17
2023-01-25T11:24:11.492Z,29.50
2023-01-25T11:29:25.380Z,27.87
2023-01-25T11:31:54.776Z,27.57
2023-01-25T11:34:26.664Z,30.67
2023-01-25T11:37:18.276Z,28.80
2023-01-25T11:39:44.988Z,30.57
2023-01-25T11:42:23.572Z,28.00
2023-01-25T11:44:57.036Z,25.87
2023-01-25T11:47:41.793Z,25.33
2023-01-25T11:50:17.727Z,26.20
2023-01-25T11:52:56.498Z,24.63
2023-01-25T11:55:29.316Z,25.10
2023-01-25T11:58:05.209Z,25.10
2023-01-25T12:00:59.715Z,24.00
2023-01-25T12:03:44.794Z,26.23
2023-01-25T12:06:39.539Z,27.50
2023-01-25T12:09:28.847Z,26.33
2023-01-25T12:12:20.160Z,27.10
2023-01-25T12:17:46.782Z,25.00
2023-01-25T12:20:34.197Z,28.07
2023-01-25T12:23:17.260Z,24.73
2023-01-25T12:26:12.767Z,26.50
2023-01-25T12:28:49.067Z,22.57
2023-01-25T12:31:20.198Z,28.73
2023-01-25T12:33:59.834Z,27.93
2023-01-25T12:36:34.568Z,26.27
2023-01-25T12:39:09.578Z,48.43
2023-01-25T12:41:54.502Z,33.00
2023-01-25T12:44:50.146Z,27.17
2023-01-25T12:47:40.900Z,26.27
2023-01-25T12:50:19.287Z,27.53
2023-01-25T12:53:02.839Z,23.47
2023-01-25T12:55:32.007Z,24.87
2023-01-25T12:58:02.892Z,25.67
2023-01-25T13:00:48.669Z,25.83
2023-01-25T13:03:30.084Z,25.97
2023-01-25T13:06:14.510Z,25.57
2023-01-25T13:08:54.317Z,24.93
2023-01-25T13:11:25.734Z,25.47
2023-01-25T13:13:52.583Z,25.87
2023-01-25T13:16:24.296Z,27.43
2023-01-25T13:18:51.090Z,27.53
2023-01-25T13:21:37.009Z,24.90
2023-01-25T13:24:26.465Z,25.77
2023-01-25T13:26:53.057Z,25.00
2023-01-25T13:29:32.257Z,27.13
2023-01-25T13:32:00.810Z,25.57
2023-01-25T13:34:36.594Z,26.73
2023-01-25T13:37:17.777Z,25.27
2023-01-25T13:40:23.341Z,24.63
2023-01-25T13:43:02.369Z,24.40
2023-01-25T13:45:30.179Z,22.97
2023-01-25T13:48:05.954Z,22.67
2023-01-25T13:50:40.081Z,25.40
2023-01-25T13:53:20.044Z,23.03
2023-01-25T14:09:27.500Z,22.67
2023-01-25T14:12:05.723Z,22.37
2023-01-25T14:19:04.715Z,22.23
2023-01-25T14:25:54.502Z,23.77
2023-01-25T14:39:24.942Z,29.43
2023-01-25T14:42:00.818Z,25.93
2023-01-25T14:44:29.704Z,25.37
2023-01-25T14:47:31.481Z,32.80
2023-01-25T14:50:36.319Z,29.00
2023-01-25T14:53:24.855Z,31.20
2023-01-25T14:55:51.898Z,26.53
2023-01-25T14:58:23.892Z,28.67
2023-01-25T15:00:55.894Z,30.50
2023-01-25T15:03:23.083Z,28.33
2023-01-25T15:05:49.875Z,29.50
2023-01-25T15:08:27.930Z,27.60
2023-01-25T15:11:18.934Z,28.50
2023-01-25T15:13:45.875Z,27.10
2023-01-25T15:16:13.111Z,29.03
2023-01-25T15:18:53.437Z,31.13
2023-01-25T15:21:30.506Z,28.77
2023-01-25T15:24:06.999Z,29.50
2023-01-25T15:26:35.920Z,29.53
2023-01-25T15:29:16.564Z,30.77
2023-01-25T15:31:43.821Z,27.20
2023-01-25T15:34:17.332Z,27.97
2023-01-25T15:36:44.342Z,34.03
2023-01-25T15:39:17.006Z,32.73
2023-01-25T15:41:44.360Z,31.50
2023-01-25T15:44:11.684Z,31.60
2023-01-25T15:46:41.988Z,31.90
2023-01-25T15:49:13.730Z,29.63
2023-01-25T15:51:40.570Z,29.53
2023-01-25T15:54:07.396Z,31.10
2023-01-25T15:56:37.091Z,30.60
2023-01-25T15:59:09.223Z,27.97
2023-01-25T16:01:35.934Z,30.57
2023-01-25T16:04:02.666Z,29.60
2023-01-25T16:06:37.039Z,31.07
2023-01-25T16:09:21.955Z,32.47
2023-01-25T16:11:52.675Z,29.43
2023-01-25T16:14:19.454Z,24.97
2023-01-25T16:16:49.417Z,27.50
2023-01-25T16:19:20.739Z,26.40
2023-01-25T16:21:47.713Z,36.08
2023-01-25T16:24:14.596Z,32.50
2023-01-25T16:27:00.763Z,29.87
2023-01-25T16:29:28.737Z,30.27
2023-01-25T16:31:55.604Z,28.33
2023-01-25T16:34:22.447Z,28.50
2023-01-25T16:36:52.869Z,29.93
2023-01-25T16:39:22.128Z,27.93
2023-01-25T16:41:49.841Z,28.93
2023-01-25T16:44:17.478Z,27.03
2023-01-25T16:46:44.974Z,27.67
2023-01-25T16:49:19.788Z,23.90
2023-01-25T16:51:49.412Z,24.30
2023-01-25T16:54:16.999Z,24.93
2023-01-25T16:56:44.065Z,23.10
2023-01-25T16:59:11.463Z,23.80
2023-01-25T17:01:41.789Z,23.43
2023-01-25T17:04:09.533Z,25.10
2023-01-25T17:06:39.638Z,24.50
2023-01-25T17:09:21.505Z,24.37
2023-01-25T17:11:49.845Z,24.63
2023-01-25T17:14:19.369Z,26.73
2023-01-25T17:16:48.491Z,32.60
2023-01-25T17:19:17.079Z,26.30
2023-01-25T17:21:44.665Z,26.23
2023-01-25T17:24:14.823Z,26.00
2023-01-25T17:26:42.010Z,23.90
2023-01-25T17:29:10.384Z,49.47
2023-01-25T17:31:37.578Z,36.33
2023-01-25T17:34:06.752Z,27.70
2023-01-25T17:36:34.011Z,27.27
2023-01-25T17:39:06.118Z,26.30
2023-01-25T17:41:33.116Z,26.80
2023-01-25T17:44:37.969Z,26.97
2023-01-25T17:47:01.248Z,27.40
2023-01-25T17:49:29.351Z,25.70
2023-01-25T17:51:56.014Z,26.70
2023-01-25T17:54:22.745Z,26.87
2023-01-25T17:56:49.532Z,31.57
2023-01-25T17:59:16.101Z,29.90
2023-01-25T18:01:43.620Z,26.60
2023-01-25T18:04:10.559Z,33.00
2023-01-25T18:06:37.442Z,27.70
2023-01-25T18:09:06.310Z,28.90
2023-01-25T18:11:35.800Z,32.33
2023-01-25T18:14:08.227Z,23.73
2023-01-25T18:16:37.395Z,28.57
2023-01-25T18:19:05.241Z,25.33
2023-01-25T18:21:33.321Z,26.23
2023-01-25T18:24:04.752Z,25.77
2023-01-25T18:27:09.590Z,25.50
2023-01-25T18:29:47.099Z,25.97
2023-01-25T18:32:15.715Z,23.10
2023-01-25T18:34:53.444Z,26.73
2023-01-25T18:37:21.074Z,26.30
2023-01-25T18:39:49.299Z,24.87
2023-01-25T18:42:16.059Z,40.70
2023-01-25T18:44:45.364Z,26.27
2023-01-25T18:47:13.928Z,25.37
2023-01-25T18:49:41.460Z,26.37
2023-01-25T18:52:11.760Z,26.33
2023-01-25T18:54:38.906Z,25.93
2023-01-25T18:57:06.748Z,27.00
2023-01-25T18:59:33.357Z,27.40
2023-01-25T19:02:00.005Z,25.97
2023-01-25T19:04:27.466Z,30.03
2023-01-25T19:06:57.415Z,28.07
2023-01-25T19:09:25.236Z,25.27
2023-01-25T19:11:52.080Z,26.30
2023-01-25T19:14:18.987Z,28.10
2023-01-25T19:16:45.873Z,28.30
2023-01-25T19:19:12.783Z,28.17
2023-01-25T19:21:40.285Z,40.00
2023-01-25T19:24:11.989Z,41.67
2023-01-25T19:26:39.559Z,31.60
2023-01-25T19:29:07.098Z,26.47
2023-01-25T19:31:34.453Z,46.40
2023-01-25T19:34:04.407Z,38.80
2023-01-25T19:36:33.900Z,32.83
2023-01-25T19:39:02.608Z,28.77
2023-01-25T19:41:30.875Z,35.63
2023-01-25T19:44:01.706Z,31.23
2023-01-25T19:46:31.075Z,26.03
2023-01-25T19:48:59.059Z,27.57
2023-01-25T19:51:33.550Z,25.10
2023-01-25T19:54:06.439Z,27.90
2023-01-25T19:56:39.537Z,26.80
2023-01-25T19:59:12.321Z,27.77
2023-01-25T20:01:43.601Z,28.07
2023-01-25T20:04:12.583Z,28.63
2023-01-25T20:06:39.889Z,27.63
2023-01-25T20:09:07.941Z,28.73
2023-01-25T20:11:36.264Z,27.07
2023-01-25T20:14:05.416Z,26.57
2023-01-25T20:16:33.732Z,26.67
2023-01-25T20:19:01.192Z,26.47
2023-01-25T20:21:29.536Z,28.33
2023-01-25T20:24:00.271Z,27.80
2023-01-25T20:26:30.361Z,27.20
2023-01-25T20:28:58.750Z,25.03
2023-01-25T20:31:38.209Z,27.00
2023-01-25T20:34:09.249Z,33.57
2023-01-25T20:36:36.747Z,32.70
2023-01-25T20:39:06.135Z,27.63
2023-01-25T20:41:33.115Z,29.77
2023-01-25T20:44:02.039Z,29.60
2023-01-25T20:46:37.147Z,29.47
2023-01-25T20:49:05.838Z,33.20
2023-01-25T20:51:33.658Z,39.17
2023-01-25T20:54:00.387Z,45.27
2023-01-25T20:56:27.522Z,40.57
2023-01-25T20:58:54.943Z,39.77
2023-01-25T21:01:24.107Z,31.70
2023-01-25T21:03:51.155Z,36.23
2023-01-25T21:06:18.244Z,30.67
2023-01-25T21:08:45.283Z,30.83
2023-01-25T21:11:13.428Z,30.37
2023-01-25T21:13:40.218Z,30.00
2023-01-25T21:16:13.024Z,31.47
2023-01-25T21:18:45.695Z,36.07
2023-01-25T21:21:18.213Z,49.50
2023-01-25T21:23:47.489Z,35.60
2023-01-25T21:26:22.805Z,32.17
2023-01-25T21:28:50.548Z,31.33
2023-01-25T21:31:19.700Z,30.47
2023-01-25T21:33:47.099Z,30.73
2023-01-25T21:36:17.000Z,33.03
2023-01-25T21:41:29.292Z,29.77
2023-01-25T21:44:17.186Z,29.00
2023-01-25T21:46:51.314Z,31.27
2023-01-25T21:49:41.417Z,31.67
2023-01-25T21:52:10.881Z,30.20
2023-01-25T21:54:38.426Z,30.63
2023-01-25T21:57:08.862Z,31.07
2023-01-25T21:59:40.658Z,30.30
2023-01-25T22:02:15.315Z,30.90
2023-01-25T22:04:41.911Z,30.10
2023-01-25T22:07:09.299Z,31.90
2023-01-25T22:09:36.542Z,30.97
2023-01-25T22:12:03.307Z,30.90
2023-01-25T22:14:29.910Z,32.40
2023-01-25T22:16:56.562Z,29.17
2023-01-25T22:19:23.431Z,32.43
2023-01-25T22:21:50.204Z,32.57
2023-01-25T22:24:17.068Z,32.00
2023-01-25T22:26:53.565Z,30.33
2023-01-25T22:29:20.342Z,31.93
2023-01-25T22:31:47.198Z,33.10
2023-01-25T22:34:13.791Z,34.00
2023-01-25T22:36:40.434Z,33.50
2023-01-25T22:39:07.145Z,31.57
2023-01-25T22:41:37.149Z,33.37
2023-01-25T22:44:04.028Z,33.50
2023-01-25T22:46:30.793Z,32.23
2023-01-25T22:48:58.620Z,34.40
2023-01-25T22:51:27.710Z,32.97
2023-01-25T22:53:55.344Z,32.50
2023-01-25T22:56:24.674Z,34.47
2023-01-25T22:58:51.722Z,35.43
2023-01-25T23:01:30.539Z,31.87
2023-01-25T23:03:57.853Z,33.73
2023-01-25T23:06:27.120Z,34.20
2023-01-25T23:08:59.813Z,34.23
2023-01-25T23:11:32.285Z,32.97
2023-01-25T23:14:17.958Z,33.67
2023-01-25T23:16:44.585Z,35.67
2023-01-25T23:19:11.199Z,36.57
2023-01-25T23:21:37.954Z,34.87
2023-01-25T23:24:04.876Z,35.17
2023-01-25T23:26:37.564Z,33.17
2023-01-25T23:29:07.143Z,35.07
2023-01-25T23:31:34.044Z,36.63
2023-01-25T23:34:02.749Z,36.33
2023-01-25T23:36:32.519Z,35.20
2023-01-25T23:38:59.812Z,34.47
2023-01-25T23:41:28.549Z,35.00
2023-01-25T23:43:56.010Z,33.97
2023-01-25T23:46:23.928Z,35.17
2023-01-25T23:48:50.973Z,35.07
2023-01-25T23:51:18.495Z,34.00
2023-01-25T23:53:45.476Z,32.43
2023-01-25T23:56:21.359Z,36.03
2023-01-25T23:58:48.738Z,33.07
